sensor_id;sensor_type;location;lat;lon;timestamp;P1;durP1;ratioP1;P2;durP2;ratioP2
4057;SDS011;2044;48.692;9.020;2022-12-29T00:00:17;8.03;;;5.70;;
4057;SDS011;2044;48.692;9.020;2022-12-29T00:02:45;3.50;;;3.00;;
4057;SDS011;2044;48.692;9.020;2022-12-29T00:05:12;2.73;;;2.47;;
4057;SDS011;2044;48.692;9.020;2022-12-29T00:07:38;2.70;;;2.50;;
4057;SDS011;2044;48.692;9.020;2022-12-29T00:10:05;2.40;;;2.30;;
4057;SDS011;2044;48.692;9.020;2022-12-29T00:12:33;4.20;;;2.20;;
4057;SDS011;2044;48.692;9.020;2022-12-29T00:15:13;3.80;;;2.50;;
4057;SDS011;2044;48.692;9.020;2022-12-29T00:17:59;2.67;;;2.47;;
4057;SDS011;2044;48.692;9.020;2022-12-29T00:20:25;4.13;;;2.67;;
4057;SDS011;2044;48.692;9.020;2022-12-29T00:23:09;2.47;;;2.17;;
4057;SDS011;2044;48.692;9.020;2022-12-29T00:25:54;3.37;;;2.90;;
4057;SDS011;2044;48.692;9.020;2022-12-29T00:28:39;2.43;;;2.33;;
4057;SDS011;2044;48.692;9.020;2022-12-29T00:31:23;3.13;;;2.50;;
4057;SDS011;2044;48.692;9.020;2022-12-29T00:34:09;3.23;;;2.97;;
4057;SDS011;2044;48.692;9.020;2022-12-29T00:36:54;2.20;;;2.10;;
4057;SDS011;2044;48.692;9.020;2022-12-29T00:39:21;4.30;;;2.27;;
4057;SDS011;2044;48.692;9.020;2022-12-29T00:42:06;2.53;;;2.43;;
4057;SDS011;2044;48.692;9.020;2022-12-29T00:44:51;2.50;;;2.40;;
4057;SDS011;2044;48.692;9.020;2022-12-29T00:47:18;2.50;;;2.30;;
4057;SDS011;2044;48.692;9.020;2022-12-29T00:49:46;3.33;;;2.30;;
4057;SDS011;2044;48.692;9.020;2022-12-29T00:52:13;3.67;;;2.67;;
4057;SDS011;2044;48.692;9.020;2022-12-29T00:54:40;3.23;;;2.93;;
4057;SDS011;2044;48.692;9.020;2022-12-29T00:57:09;3.83;;;2.47;;
4057;SDS011;2044;48.692;9.020;2022-12-29T00:59:37;4.30;;;2.80;;
4057;SDS011;2044;48.692;9.020;2022-12-29T01:02:04;5.43;;;2.43;;
4057;SDS011;2044;48.692;9.020;2022-12-29T01:04:32;3.40;;;3.10;;
4057;SDS011;2044;48.692;9.020;2022-12-29T01:07:00;2.90;;;2.50;;
4057;SDS011;2044;48.692;9.020;2022-12-29T01:09:26;2.60;;;2.50;;
4057;SDS011;2044;48.692;9.020;2022-12-29T01:12:11;2.30;;;2.20;;
4057;SDS011;2044;48.692;9.020;2022-12-29T01:14:38;2.57;;;2.37;;
4057;SDS011;2044;48.692;9.020;2022-12-29T01:17:05;2.30;;;2.20;;
4057;SDS011;2044;48.692;9.020;2022-12-29T01:19:32;3.57;;;2.60;;
4057;SDS011;2044;48.692;9.020;2022-12-29T01:22:00;2.30;;;2.10;;
4057;SDS011;2044;48.692;9.020;2022-12-29T01:24:27;2.27;;;2.00;;
4057;SDS011;2044;48.692;9.020;2022-12-29T01:26:53;2.00;;;1.90;;
4057;SDS011;2044;48.692;9.020;2022-12-29T01:29:20;3.43;;;2.80;;
4057;SDS011;2044;48.692;9.020;2022-12-29T01:31:47;2.77;;;2.30;;
4057;SDS011;2044;48.692;9.020;2022-12-29T01:34:14;2.40;;;2.30;;
4057;SDS011;2044;48.692;9.020;2022-12-29T01:36:41;2.60;;;2.40;;
4057;SDS011;2044;48.692;9.020;2022-12-29T01:39:09;2.60;;;2.50;;
4057;SDS011;2044;48.692;9.020;2022-12-29T01:41:35;3.20;;;2.30;;
4057;SDS011;2044;48.692;9.020;2022-12-29T01:44:02;3.43;;;2.70;;
4057;SDS011;2044;48.692;9.020;2022-12-29T01:46:44;2.30;;;2.20;;
4057;SDS011;2044;48.692;9.020;2022-12-29T01:49:15;2.97;;;2.50;;
4057;SDS011;2044;48.692;9.020;2022-12-29T01:51:45;3.43;;;3.23;;
4057;SDS011;2044;48.692;9.020;2022-12-29T01:54:18;3.00;;;2.73;;
4057;SDS011;2044;48.692;9.020;2022-12-29T01:56:52;3.13;;;2.77;;
4057;SDS011;2044;48.692;9.020;2022-12-29T01:59:20;3.30;;;3.10;;
4057;SDS011;2044;48.692;9.020;2022-12-29T02:01:50;2.90;;;2.80;;
4057;SDS011;2044;48.692;9.020;2022-12-29T02:04:17;2.87;;;2.67;;
4057;SDS011;2044;48.692;9.020;2022-12-29T02:06:45;2.63;;;2.43;;
4057;SDS011;2044;48.692;9.020;2022-12-29T02:09:18;3.07;;;2.87;;
4057;SDS011;2044;48.692;9.020;2022-12-29T02:11:46;5.07;;;2.90;;
4057;SDS011;2044;48.692;9.020;2022-12-29T02:14:14;3.17;;;2.97;;
4057;SDS011;2044;48.692;9.020;2022-12-29T02:16:45;4.40;;;3.00;;
4057;SDS011;2044;48.692;9.020;2022-12-29T02:22:25;7.23;;;3.17;;
4057;SDS011;2044;48.692;9.020;2022-12-29T02:28:12;3.13;;;2.60;;
4057;SDS011;2044;48.692;9.020;2022-12-29T02:31:03;3.40;;;3.10;;
4057;SDS011;2044;48.692;9.020;2022-12-29T02:33:36;3.30;;;3.20;;
4057;SDS011;2044;48.692;9.020;2022-12-29T02:36:13;3.47;;;3.20;;
4057;SDS011;2044;48.692;9.020;2022-12-29T02:38:49;3.30;;;3.10;;
4057;SDS011;2044;48.692;9.020;2022-12-29T02:41:27;3.27;;;3.07;;
4057;SDS011;2044;48.692;9.020;2022-12-29T02:43:59;2.67;;;2.57;;
4057;SDS011;2044;48.692;9.020;2022-12-29T02:46:36;3.00;;;2.80;;
4057;SDS011;2044;48.692;9.020;2022-12-29T02:49:09;6.20;;;3.07;;
4057;SDS011;2044;48.692;9.020;2022-12-29T02:51:40;3.83;;;3.23;;
4057;SDS011;2044;48.692;9.020;2022-12-29T02:54:12;2.70;;;2.60;;
4057;SDS011;2044;48.692;9.020;2022-12-29T02:56:57;3.00;;;2.90;;
4057;SDS011;2044;48.692;9.020;2022-12-29T02:59:23;3.60;;;3.30;;
4057;SDS011;2044;48.692;9.020;2022-12-29T03:01:59;3.20;;;3.00;;
4057;SDS011;2044;48.692;9.020;2022-12-29T03:04:44;3.37;;;3.17;;
4057;SDS011;2044;48.692;9.020;2022-12-29T03:07:22;3.60;;;3.40;;
4057;SDS011;2044;48.692;9.020;2022-12-29T03:09:56;3.17;;;2.97;;
4057;SDS011;2044;48.692;9.020;2022-12-29T03:12:37;3.43;;;3.33;;
4057;SDS011;2044;48.692;9.020;2022-12-29T03:15:31;3.40;;;3.30;;
4057;SDS011;2044;48.692;9.020;2022-12-29T03:18:25;5.20;;;3.30;;
4057;SDS011;2044;48.692;9.020;2022-12-29T03:21:13;6.97;;;3.50;;
4057;SDS011;2044;48.692;9.020;2022-12-29T03:23:42;4.00;;;3.80;;
4057;SDS011;2044;48.692;9.020;2022-12-29T03:26:12;4.40;;;3.60;;
4057;SDS011;2044;48.692;9.020;2022-12-29T03:28:42;4.00;;;3.80;;
4057;SDS011;2044;48.692;9.020;2022-12-29T03:31:13;3.73;;;3.43;;
4057;SDS011;2044;48.692;9.020;2022-12-29T03:33:42;3.90;;;3.70;;
4057;SDS011;2044;48.692;9.020;2022-12-29T03:36:12;3.83;;;3.30;;
4057;SDS011;2044;48.692;9.020;2022-12-29T03:38:47;3.47;;;3.27;;
4057;SDS011;2044;48.692;9.020;2022-12-29T03:41:20;3.13;;;3.00;;
4057;SDS011;2044;48.692;9.020;2022-12-29T03:43:51;3.30;;;3.20;;
4057;SDS011;2044;48.692;9.020;2022-12-29T03:46:18;3.43;;;3.23;;
4057;SDS011;2044;48.692;9.020;2022-12-29T03:48:46;3.50;;;3.40;;
4057;SDS011;2044;48.692;9.020;2022-12-29T03:51:13;3.40;;;3.27;;
4057;SDS011;2044;48.692;9.020;2022-12-29T03:53:39;3.40;;;3.20;;
4057;SDS011;2044;48.692;9.020;2022-12-29T03:56:06;3.33;;;3.10;;
4057;SDS011;2044;48.692;9.020;2022-12-29T03:58:33;3.00;;;2.83;;
4057;SDS011;2044;48.692;9.020;2022-12-29T04:01:00;3.03;;;2.93;;
4057;SDS011;2044;48.692;9.020;2022-12-29T04:03:27;3.10;;;2.90;;
4057;SDS011;2044;48.692;9.020;2022-12-29T04:05:55;3.10;;;2.90;;
4057;SDS011;2044;48.692;9.020;2022-12-29T04:08:21;3.57;;;3.37;;
4057;SDS011;2044;48.692;9.020;2022-12-29T04:10:48;2.53;;;2.33;;
4057;SDS011;2044;48.692;9.020;2022-12-29T04:13:15;2.40;;;2.30;;
4057;SDS011;2044;48.692;9.020;2022-12-29T04:15:42;3.60;;;2.80;;
4057;SDS011;2044;48.692;9.020;2022-12-29T04:18:10;3.07;;;2.87;;
4057;SDS011;2044;48.692;9.020;2022-12-29T04:20:36;2.60;;;2.50;;
4057;SDS011;2044;48.692;9.020;2022-12-29T04:23:22;2.70;;;2.50;;
4057;SDS011;2044;48.692;9.020;2022-12-29T04:25:49;2.37;;;2.27;;
4057;SDS011;2044;48.692;9.020;2022-12-29T04:28:16;2.50;;;2.30;;
4057;SDS011;2044;48.692;9.020;2022-12-29T04:30:43;2.30;;;2.20;;
4057;SDS011;2044;48.692;9.020;2022-12-29T04:33:10;2.23;;;2.13;;
4057;SDS011;2044;48.692;9.020;2022-12-29T04:35:37;1.93;;;1.80;;
4057;SDS011;2044;48.692;9.020;2022-12-29T04:38:03;2.40;;;2.10;;
4057;SDS011;2044;48.692;9.020;2022-12-29T04:40:31;6.07;;;2.03;;
4057;SDS011;2044;48.692;9.020;2022-12-29T04:42:58;2.37;;;2.17;;
4057;SDS011;2044;48.692;9.020;2022-12-29T04:45:25;2.00;;;1.90;;
4057;SDS011;2044;48.692;9.020;2022-12-29T04:47:51;1.70;;;1.60;;
4057;SDS011;2044;48.692;9.020;2022-12-29T04:50:18;2.23;;;1.90;;
4057;SDS011;2044;48.692;9.020;2022-12-29T04:52:45;2.40;;;2.30;;
4057;SDS011;2044;48.692;9.020;2022-12-29T04:55:11;2.30;;;2.20;;
4057;SDS011;2044;48.692;9.020;2022-12-29T04:57:39;2.20;;;2.10;;
4057;SDS011;2044;48.692;9.020;2022-12-29T05:00:06;2.30;;;2.20;;
4057;SDS011;2044;48.692;9.020;2022-12-29T05:02:34;2.40;;;2.20;;
4057;SDS011;2044;48.692;9.020;2022-12-29T05:05:01;2.90;;;2.70;;
4057;SDS011;2044;48.692;9.020;2022-12-29T05:07:28;1.90;;;1.80;;
4057;SDS011;2044;48.692;9.020;2022-12-29T05:09:55;3.87;;;2.10;;
4057;SDS011;2044;48.692;9.020;2022-12-29T05:12:22;2.30;;;2.20;;
4057;SDS011;2044;48.692;9.020;2022-12-29T05:14:50;2.40;;;2.10;;
4057;SDS011;2044;48.692;9.020;2022-12-29T05:17:16;2.90;;;2.70;;
4057;SDS011;2044;48.692;9.020;2022-12-29T05:19:43;2.67;;;2.30;;
4057;SDS011;2044;48.692;9.020;2022-12-29T05:22:09;2.50;;;2.30;;
4057;SDS011;2044;48.692;9.020;2022-12-29T05:24:36;4.40;;;2.23;;
4057;SDS011;2044;48.692;9.020;2022-12-29T05:27:03;2.33;;;1.97;;
4057;SDS011;2044;48.692;9.020;2022-12-29T05:29:29;2.47;;;2.27;;
4057;SDS011;2044;48.692;9.020;2022-12-29T05:31:57;2.30;;;2.20;;
4057;SDS011;2044;48.692;9.020;2022-12-29T05:34:24;2.17;;;2.00;;
4057;SDS011;2044;48.692;9.020;2022-12-29T05:36:51;2.47;;;2.30;;
4057;SDS011;2044;48.692;9.020;2022-12-29T05:39:18;2.77;;;2.40;;
4057;SDS011;2044;48.692;9.020;2022-12-29T05:41:44;2.00;;;1.90;;
4057;SDS011;2044;48.692;9.020;2022-12-29T05:44:11;2.60;;;2.20;;
4057;SDS011;2044;48.692;9.020;2022-12-29T05:46:38;4.67;;;2.50;;
4057;SDS011;2044;48.692;9.020;2022-12-29T05:49:06;2.40;;;2.20;;
4057;SDS011;2044;48.692;9.020;2022-12-29T05:51:33;2.40;;;2.30;;
4057;SDS011;2044;48.692;9.020;2022-12-29T05:54:00;2.30;;;2.20;;
4057;SDS011;2044;48.692;9.020;2022-12-29T05:56:26;2.30;;;2.20;;
4057;SDS011;2044;48.692;9.020;2022-12-29T05:58:53;2.47;;;2.30;;
4057;SDS011;2044;48.692;9.020;2022-12-29T06:01:20;2.47;;;2.30;;
4057;SDS011;2044;48.692;9.020;2022-12-29T06:03:47;2.20;;;2.10;;
4057;SDS011;2044;48.692;9.020;2022-12-29T06:06:15;2.37;;;2.20;;
4057;SDS011;2044;48.692;9.020;2022-12-29T06:08:41;2.70;;;2.50;;
4057;SDS011;2044;48.692;9.020;2022-12-29T06:11:08;2.60;;;2.40;;
4057;SDS011;2044;48.692;9.020;2022-12-29T06:13:35;2.73;;;2.47;;
4057;SDS011;2044;48.692;9.020;2022-12-29T06:16:02;4.50;;;2.47;;
4057;SDS011;2044;48.692;9.020;2022-12-29T06:18:29;2.30;;;2.20;;
4057;SDS011;2044;48.692;9.020;2022-12-29T06:20:58;2.23;;;2.13;;
4057;SDS011;2044;48.692;9.020;2022-12-29T06:23:27;2.97;;;2.30;;
4057;SDS011;2044;48.692;9.020;2022-12-29T06:25:54;2.40;;;2.30;;
4057;SDS011;2044;48.692;9.020;2022-12-29T06:28:21;2.77;;;2.57;;
4057;SDS011;2044;48.692;9.020;2022-12-29T06:30:47;2.40;;;2.07;;
4057;SDS011;2044;48.692;9.020;2022-12-29T06:33:14;2.33;;;2.23;;
4057;SDS011;2044;48.692;9.020;2022-12-29T06:35:41;2.30;;;2.20;;
4057;SDS011;2044;48.692;9.020;2022-12-29T06:38:08;2.60;;;2.50;;
4057;SDS011;2044;48.692;9.020;2022-12-29T06:40:36;2.60;;;2.50;;
4057;SDS011;2044;48.692;9.020;2022-12-29T06:43:03;2.87;;;2.60;;
4057;SDS011;2044;48.692;9.020;2022-12-29T06:45:30;2.50;;;2.40;;
4057;SDS011;2044;48.692;9.020;2022-12-29T06:47:57;2.97;;;2.77;;
4057;SDS011;2044;48.692;9.020;2022-12-29T06:50:23;2.47;;;2.37;;
4057;SDS011;2044;48.692;9.020;2022-12-29T06:52:50;2.83;;;2.63;;
4057;SDS011;2044;48.692;9.020;2022-12-29T06:55:17;2.50;;;2.40;;
4057;SDS011;2044;48.692;9.020;2022-12-29T06:57:45;4.20;;;2.30;;
4057;SDS011;2044;48.692;9.020;2022-12-29T07:00:12;2.33;;;2.13;;
4057;SDS011;2044;48.692;9.020;2022-12-29T07:02:39;2.43;;;2.33;;
4057;SDS011;2044;48.692;9.020;2022-12-29T07:05:06;2.80;;;2.37;;
4057;SDS011;2044;48.692;9.020;2022-12-29T07:07:34;2.70;;;2.50;;
4057;SDS011;2044;48.692;9.020;2022-12-29T07:10:01;2.80;;;2.50;;
4057;SDS011;2044;48.692;9.020;2022-12-29T07:12:28;2.93;;;2.60;;
4057;SDS011;2044;48.692;9.020;2022-12-29T07:14:56;2.40;;;2.30;;
4057;SDS011;2044;48.692;9.020;2022-12-29T07:17:23;2.73;;;2.53;;
4057;SDS011;2044;48.692;9.020;2022-12-29T07:19:49;3.47;;;2.50;;
4057;SDS011;2044;48.692;9.020;2022-12-29T07:22:16;2.50;;;2.30;;
4057;SDS011;2044;48.692;9.020;2022-12-29T07:24:43;2.27;;;2.17;;
4057;SDS011;2044;48.692;9.020;2022-12-29T07:27:09;3.03;;;2.17;;
4057;SDS011;2044;48.692;9.020;2022-12-29T07:29:36;2.10;;;2.00;;
4057;SDS011;2044;48.692;9.020;2022-12-29T07:32:05;2.13;;;2.00;;
4057;SDS011;2044;48.692;9.020;2022-12-29T07:34:31;2.10;;;2.00;;
4057;SDS011;2044;48.692;9.020;2022-12-29T07:36:58;3.17;;;2.90;;
4057;SDS011;2044;48.692;9.020;2022-12-29T07:39:25;2.37;;;2.17;;
4057;SDS011;2044;48.692;9.020;2022-12-29T07:41:51;2.67;;;2.47;;
4057;SDS011;2044;48.692;9.020;2022-12-29T07:44:18;3.27;;;2.40;;
4057;SDS011;2044;48.692;9.020;2022-12-29T07:46:45;3.40;;;2.60;;
4057;SDS011;2044;48.692;9.020;2022-12-29T07:49:13;2.77;;;2.57;;
4057;SDS011;2044;48.692;9.020;2022-12-29T07:51:39;2.53;;;2.43;;
4057;SDS011;2044;48.692;9.020;2022-12-29T07:54:06;2.90;;;2.33;;
4057;SDS011;2044;48.692;9.020;2022-12-29T07:56:33;2.80;;;2.60;;
4057;SDS011;2044;48.692;9.020;2022-12-29T07:58:59;2.53;;;2.33;;
4057;SDS011;2044;48.692;9.020;2022-12-29T08:01:26;2.00;;;1.90;;
4057;SDS011;2044;48.692;9.020;2022-12-29T08:03:53;2.53;;;2.30;;
4057;SDS011;2044;48.692;9.020;2022-12-29T08:06:21;2.13;;;2.03;;
4057;SDS011;2044;48.692;9.020;2022-12-29T08:08:47;3.57;;;2.40;;
4057;SDS011;2044;48.692;9.020;2022-12-29T08:11:14;2.37;;;2.27;;
4057;SDS011;2044;48.692;9.020;2022-12-29T08:13:41;3.07;;;2.77;;
4057;SDS011;2044;48.692;9.020;2022-12-29T08:16:07;3.10;;;2.70;;
4057;SDS011;2044;48.692;9.020;2022-12-29T08:18:34;4.40;;;2.40;;
4057;SDS011;2044;48.692;9.020;2022-12-29T08:21:01;2.33;;;2.23;;
4057;SDS011;2044;48.692;9.020;2022-12-29T08:23:30;3.77;;;2.20;;
4057;SDS011;2044;48.692;9.020;2022-12-29T08:25:57;2.57;;;2.43;;
4057;SDS011;2044;48.692;9.020;2022-12-29T08:28:24;2.40;;;2.30;;
4057;SDS011;2044;48.692;9.020;2022-12-29T08:30:51;2.20;;;2.10;;
4057;SDS011;2044;48.692;9.020;2022-12-29T08:33:18;2.63;;;2.30;;
4057;SDS011;2044;48.692;9.020;2022-12-29T08:35:45;2.40;;;2.30;;
4057;SDS011;2044;48.692;9.020;2022-12-29T08:38:11;2.33;;;2.20;;
4057;SDS011;2044;48.692;9.020;2022-12-29T08:40:39;3.77;;;3.47;;
4057;SDS011;2044;48.692;9.020;2022-12-29T08:43:06;8.37;;;5.10;;
4057;SDS011;2044;48.692;9.020;2022-12-29T08:45:33;5.00;;;4.60;;
4057;SDS011;2044;48.692;9.020;2022-12-29T08:48:00;4.33;;;4.03;;
4057;SDS011;2044;48.692;9.020;2022-12-29T08:50:27;3.80;;;3.50;;
4057;SDS011;2044;48.692;9.020;2022-12-29T08:52:53;5.53;;;5.03;;
4057;SDS011;2044;48.692;9.020;2022-12-29T08:55:20;3.43;;;2.40;;
4057;SDS011;2044;48.692;9.020;2022-12-29T08:57:48;2.90;;;2.70;;
4057;SDS011;2044;48.692;9.020;2022-12-29T09:00:15;3.87;;;3.53;;
4057;SDS011;2044;48.692;9.020;2022-12-29T09:02:42;6.43;;;3.90;;
4057;SDS011;2044;48.692;9.020;2022-12-29T09:05:09;3.67;;;3.37;;
4057;SDS011;2044;48.692;9.020;2022-12-29T09:07:35;21.83;;;3.30;;
4057;SDS011;2044;48.692;9.020;2022-12-29T09:10:03;3.33;;;2.97;;
4057;SDS011;2044;48.692;9.020;2022-12-29T09:12:31;4.03;;;3.83;;
4057;SDS011;2044;48.692;9.020;2022-12-29T09:14:59;5.00;;;3.93;;
4057;SDS011;2044;48.692;9.020;2022-12-29T09:17:26;2.67;;;2.50;;
4057;SDS011;2044;48.692;9.020;2022-12-29T09:20:11;4.10;;;3.70;;
4057;SDS011;2044;48.692;9.020;2022-12-29T09:22:39;3.47;;;3.17;;
4057;SDS011;2044;48.692;9.020;2022-12-29T09:25:06;2.80;;;2.70;;
4057;SDS011;2044;48.692;9.020;2022-12-29T09:27:34;4.40;;;3.20;;
4057;SDS011;2044;48.692;9.020;2022-12-29T09:30:02;3.43;;;3.23;;
4057;SDS011;2044;48.692;9.020;2022-12-29T09:32:30;3.10;;;2.90;;
4057;SDS011;2044;48.692;9.020;2022-12-29T09:34:57;3.00;;;2.90;;
4057;SDS011;2044;48.692;9.020;2022-12-29T09:37:24;4.40;;;3.37;;
4057;SDS011;2044;48.692;9.020;2022-12-29T09:39:50;3.23;;;3.07;;
4057;SDS011;2044;48.692;9.020;2022-12-29T09:42:19;5.20;;;3.50;;
4057;SDS011;2044;48.692;9.020;2022-12-29T09:44:56;3.50;;;3.30;;
4057;SDS011;2044;48.692;9.020;2022-12-29T09:47:34;3.07;;;2.97;;
4057;SDS011;2044;48.692;9.020;2022-12-29T09:50:03;3.80;;;3.50;;
4057;SDS011;2044;48.692;9.020;2022-12-29T09:52:36;3.30;;;3.10;;
4057;SDS011;2044;48.692;9.020;2022-12-29T09:55:08;3.30;;;3.20;;
4057;SDS011;2044;48.692;9.020;2022-12-29T09:57:39;3.30;;;3.20;;
4057;SDS011;2044;48.692;9.020;2022-12-29T10:00:13;4.40;;;4.00;;
4057;SDS011;2044;48.692;9.020;2022-12-29T10:02:43;3.13;;;2.90;;
4057;SDS011;2044;48.692;9.020;2022-12-29T10:05:13;3.30;;;3.00;;
4057;SDS011;2044;48.692;9.020;2022-12-29T10:07:48;3.20;;;2.93;;
4057;SDS011;2044;48.692;9.020;2022-12-29T10:10:25;3.23;;;3.03;;
4057;SDS011;2044;48.692;9.020;2022-12-29T10:13:02;2.67;;;2.57;;
4057;SDS011;2044;48.692;9.020;2022-12-29T10:15:52;3.30;;;3.20;;
4057;SDS011;2044;48.692;9.020;2022-12-29T10:18:32;4.30;;;3.00;;
4057;SDS011;2044;48.692;9.020;2022-12-29T10:21:17;3.57;;;3.27;;
4057;SDS011;2044;48.692;9.020;2022-12-29T10:23:48;2.80;;;2.70;;
4057;SDS011;2044;48.692;9.020;2022-12-29T10:26:18;3.37;;;3.07;;
4057;SDS011;2044;48.692;9.020;2022-12-29T10:28:47;3.80;;;3.10;;
4057;SDS011;2044;48.692;9.020;2022-12-29T10:31:20;3.37;;;3.20;;
4057;SDS011;2044;48.692;9.020;2022-12-29T10:33:50;4.17;;;3.20;;
4057;SDS011;2044;48.692;9.020;2022-12-29T10:36:21;4.00;;;3.33;;
4057;SDS011;2044;48.692;9.020;2022-12-29T10:38:58;3.67;;;3.47;;
4057;SDS011;2044;48.692;9.020;2022-12-29T10:41:32;3.67;;;3.47;;
4057;SDS011;2044;48.692;9.020;2022-12-29T10:44:03;3.63;;;3.53;;
4057;SDS011;2044;48.692;9.020;2022-12-29T10:46:32;3.97;;;3.83;;
4057;SDS011;2044;48.692;9.020;2022-12-29T10:49:02;3.63;;;3.50;;
4057;SDS011;2044;48.692;9.020;2022-12-29T10:51:31;3.47;;;3.37;;
4057;SDS011;2044;48.692;9.020;2022-12-29T10:54:02;3.40;;;3.30;;
4057;SDS011;2044;48.692;9.020;2022-12-29T10:56:32;4.00;;;3.70;;
4057;SDS011;2044;48.692;9.020;2022-12-29T10:59:01;4.33;;;3.93;;
4057;SDS011;2044;48.692;9.020;2022-12-29T11:01:42;3.70;;;3.50;;
4057;SDS011;2044;48.692;9.020;2022-12-29T11:04:22;3.83;;;3.50;;
4057;SDS011;2044;48.692;9.020;2022-12-29T11:06:59;4.13;;;3.80;;
4057;SDS011;2044;48.692;9.020;2022-12-29T11:09:28;3.50;;;3.30;;
4057;SDS011;2044;48.692;9.020;2022-12-29T11:11:57;3.90;;;3.70;;
4057;SDS011;2044;48.692;9.020;2022-12-29T11:14:26;3.30;;;3.20;;
4057;SDS011;2044;48.692;9.020;2022-12-29T11:16:57;4.40;;;4.10;;
4057;SDS011;2044;48.692;9.020;2022-12-29T11:19:26;4.03;;;3.40;;
4057;SDS011;2044;48.692;9.020;2022-12-29T11:21:56;3.40;;;3.20;;
4057;SDS011;2044;48.692;9.020;2022-12-29T11:24:42;2.90;;;2.80;;
4057;SDS011;2044;48.692;9.020;2022-12-29T11:27:14;3.27;;;2.90;;
4057;SDS011;2044;48.692;9.020;2022-12-29T11:29:42;2.90;;;2.77;;
4057;SDS011;2044;48.692;9.020;2022-12-29T11:32:12;5.13;;;1.73;;
4057;SDS011;2044;48.692;9.020;2022-12-29T11:34:43;2.23;;;1.60;;
4057;SDS011;2044;48.692;9.020;2022-12-29T11:37:11;2.90;;;1.70;;
4057;SDS011;2044;48.692;9.020;2022-12-29T11:39:40;2.40;;;2.20;;
4057;SDS011;2044;48.692;9.020;2022-12-29T11:42:15;2.93;;;2.73;;
4057;SDS011;2044;48.692;9.020;2022-12-29T11:44:43;2.00;;;1.90;;
4057;SDS011;2044;48.692;9.020;2022-12-29T11:47:21;5.73;;;2.70;;
4057;SDS011;2044;48.692;9.020;2022-12-29T11:49:53;1.83;;;1.77;;
4057;SDS011;2044;48.692;9.020;2022-12-29T11:52:23;2.60;;;1.67;;
4057;SDS011;2044;48.692;9.020;2022-12-29T11:54:51;1.50;;;1.40;;
4057;SDS011;2044;48.692;9.020;2022-12-29T11:57:19;1.60;;;1.47;;
4057;SDS011;2044;48.692;9.020;2022-12-29T11:59:50;1.70;;;1.60;;
4057;SDS011;2044;48.692;9.020;2022-12-29T12:02:38;1.47;;;1.37;;
4057;SDS011;2044;48.692;9.020;2022-12-29T12:05:13;1.70;;;1.60;;
4057;SDS011;2044;48.692;9.020;2022-12-29T12:07:52;3.50;;;1.80;;
4057;SDS011;2044;48.692;9.020;2022-12-29T12:10:23;1.50;;;1.43;;
4057;SDS011;2044;48.692;9.020;2022-12-29T12:12:56;1.83;;;1.70;;
4057;SDS011;2044;48.692;9.020;2022-12-29T12:15:30;1.97;;;1.50;;
4057;SDS011;2044;48.692;9.020;2022-12-29T12:18:05;1.93;;;1.83;;
4057;SDS011;2044;48.692;9.020;2022-12-29T12:20:44;1.27;;;1.10;;
4057;SDS011;2044;48.692;9.020;2022-12-29T12:23:19;1.63;;;1.53;;
4057;SDS011;2044;48.692;9.020;2022-12-29T12:25:56;1.23;;;1.13;;
4057;SDS011;2044;48.692;9.020;2022-12-29T12:28:30;2.77;;;1.10;;
4057;SDS011;2044;48.692;9.020;2022-12-29T12:31:04;2.10;;;1.50;;
4057;SDS011;2044;48.692;9.020;2022-12-29T12:33:39;3.53;;;1.20;;
4057;SDS011;2044;48.692;9.020;2022-12-29T12:36:17;2.53;;;1.33;;
4057;SDS011;2044;48.692;9.020;2022-12-29T12:38:54;1.70;;;1.60;;
4057;SDS011;2044;48.692;9.020;2022-12-29T12:41:28;3.60;;;3.33;;
4057;SDS011;2044;48.692;9.020;2022-12-29T12:44:05;2.30;;;1.63;;
4057;SDS011;2044;48.692;9.020;2022-12-29T12:46:48;1.97;;;1.27;;
4057;SDS011;2044;48.692;9.020;2022-12-29T12:50:04;3.33;;;1.47;;
4057;SDS011;2044;48.692;9.020;2022-12-29T12:52:44;1.93;;;1.30;;
4057;SDS011;2044;48.692;9.020;2022-12-29T12:55:30;5.43;;;1.93;;
4057;SDS011;2044;48.692;9.020;2022-12-29T12:58:11;2.80;;;1.80;;
4057;SDS011;2044;48.692;9.020;2022-12-29T13:00:47;9.50;;;2.03;;
4057;SDS011;2044;48.692;9.020;2022-12-29T13:03:22;3.93;;;2.20;;
4057;SDS011;2044;48.692;9.020;2022-12-29T13:06:00;1.37;;;1.20;;
4057;SDS011;2044;48.692;9.020;2022-12-29T13:08:41;1.83;;;1.50;;
4057;SDS011;2044;48.692;9.020;2022-12-29T13:11:31;2.50;;;1.37;;
4057;SDS011;2044;48.692;9.020;2022-12-29T13:14:07;2.33;;;2.00;;
4057;SDS011;2044;48.692;9.020;2022-12-29T13:16:45;2.90;;;1.80;;
4057;SDS011;2044;48.692;9.020;2022-12-29T13:19:20;3.27;;;2.10;;
4057;SDS011;2044;48.692;9.020;2022-12-29T13:22:00;2.13;;;1.50;;
4057;SDS011;2044;48.692;9.020;2022-12-29T13:24:34;2.60;;;1.70;;
4057;SDS011;2044;48.692;9.020;2022-12-29T13:27:13;2.00;;;1.40;;
4057;SDS011;2044;48.692;9.020;2022-12-29T13:29:48;1.40;;;1.30;;
4057;SDS011;2044;48.692;9.020;2022-12-29T13:32:25;3.30;;;1.60;;
4057;SDS011;2044;48.692;9.020;2022-12-29T13:35:04;2.57;;;1.40;;
4057;SDS011;2044;48.692;9.020;2022-12-29T13:37:44;2.07;;;1.67;;
4057;SDS011;2044;48.692;9.020;2022-12-29T13:40:17;5.57;;;3.60;;
4057;SDS011;2044;48.692;9.020;2022-12-29T13:42:47;1.70;;;1.60;;
4057;SDS011;2044;48.692;9.020;2022-12-29T13:45:15;2.70;;;2.10;;
4057;SDS011;2044;48.692;9.020;2022-12-29T13:47:45;4.57;;;3.00;;
4057;SDS011;2044;48.692;9.020;2022-12-29T13:50:17;10.90;;;3.50;;
4057;SDS011;2044;48.692;9.020;2022-12-29T13:52:50;10.13;;;4.77;;
4057;SDS011;2044;48.692;9.020;2022-12-29T13:55:24;8.27;;;4.37;;
4057;SDS011;2044;48.692;9.020;2022-12-29T13:57:54;4.00;;;2.77;;
4057;SDS011;2044;48.692;9.020;2022-12-29T14:00:27;3.10;;;2.40;;
4057;SDS011;2044;48.692;9.020;2022-12-29T14:03:12;2.53;;;2.23;;
4057;SDS011;2044;48.692;9.020;2022-12-29T14:06:02;2.53;;;2.03;;
4057;SDS011;2044;48.692;9.020;2022-12-29T14:08:34;6.30;;;2.20;;
4057;SDS011;2044;48.692;9.020;2022-12-29T14:11:04;5.73;;;2.60;;
4057;SDS011;2044;48.692;9.020;2022-12-29T14:13:36;2.00;;;1.60;;
4057;SDS011;2044;48.692;9.020;2022-12-29T14:16:05;5.03;;;2.47;;
4057;SDS011;2044;48.692;9.020;2022-12-29T14:18:33;6.30;;;3.50;;
4057;SDS011;2044;48.692;9.020;2022-12-29T14:21:08;4.03;;;2.47;;
4057;SDS011;2044;48.692;9.020;2022-12-29T14:23:46;3.93;;;2.17;;
4057;SDS011;2044;48.692;9.020;2022-12-29T14:26:16;12.60;;;4.43;;
4057;SDS011;2044;48.692;9.020;2022-12-29T14:31:42;3.67;;;1.23;;
4057;SDS011;2044;48.692;9.020;2022-12-29T14:34:15;1.50;;;1.40;;
4057;SDS011;2044;48.692;9.020;2022-12-29T14:36:53;2.40;;;1.53;;
4057;SDS011;2044;48.692;9.020;2022-12-29T14:42:10;2.70;;;1.80;;
4057;SDS011;2044;48.692;9.020;2022-12-29T14:44:47;4.70;;;2.00;;
4057;SDS011;2044;48.692;9.020;2022-12-29T14:47:15;3.57;;;2.00;;
4057;SDS011;2044;48.692;9.020;2022-12-29T14:49:46;6.97;;;5.00;;
4057;SDS011;2044;48.692;9.020;2022-12-29T14:52:14;1.57;;;1.47;;
4057;SDS011;2044;48.692;9.020;2022-12-29T14:54:54;5.70;;;2.13;;
4057;SDS011;2044;48.692;9.020;2022-12-29T14:57:29;2.00;;;1.87;;
4057;SDS011;2044;48.692;9.020;2022-12-29T15:00:15;2.40;;;1.60;;
4057;SDS011;2044;48.692;9.020;2022-12-29T15:02:45;2.20;;;1.47;;
4057;SDS011;2044;48.692;9.020;2022-12-29T15:07:59;3.07;;;1.67;;
4057;SDS011;2044;48.692;9.020;2022-12-29T15:10:31;8.33;;;2.77;;
4057;SDS011;2044;48.692;9.020;2022-12-29T15:13:02;2.30;;;1.53;;
4057;SDS011;2044;48.692;9.020;2022-12-29T15:15:35;3.57;;;1.77;;
4057;SDS011;2044;48.692;9.020;2022-12-29T15:18:13;2.53;;;2.20;;
4057;SDS011;2044;48.692;9.020;2022-12-29T15:20:49;1.57;;;1.20;;
4057;SDS011;2044;48.692;9.020;2022-12-29T15:23:17;2.00;;;1.70;;
4057;SDS011;2044;48.692;9.020;2022-12-29T15:25:49;2.70;;;2.03;;
4057;SDS011;2044;48.692;9.020;2022-12-29T15:28:19;5.30;;;2.07;;
4057;SDS011;2044;48.692;9.020;2022-12-29T15:30:51;2.40;;;2.17;;
4057;SDS011;2044;48.692;9.020;2022-12-29T15:33:20;4.47;;;2.00;;
4057;SDS011;2044;48.692;9.020;2022-12-29T15:35:49;2.37;;;1.63;;
4057;SDS011;2044;48.692;9.020;2022-12-29T15:38:20;4.67;;;2.00;;
4057;SDS011;2044;48.692;9.020;2022-12-29T15:40:53;2.57;;;1.93;;
4057;SDS011;2044;48.692;9.020;2022-12-29T15:43:34;1.73;;;1.63;;
4057;SDS011;2044;48.692;9.020;2022-12-29T15:46:09;5.73;;;2.17;;
4057;SDS011;2044;48.692;9.020;2022-12-29T15:48:38;3.57;;;2.17;;
4057;SDS011;2044;48.692;9.020;2022-12-29T15:51:08;3.03;;;1.87;;
4057;SDS011;2044;48.692;9.020;2022-12-29T15:53:46;6.00;;;2.93;;